sensor_id;sensor_type;location;lat;lon;timestamp;temperature;humidity
59007;DHT22;44792;52.760;6.726;2023-07-29T00:00:42;18.90;99.90
59007;DHT22;44792;52.760;6.726;2023-07-29T00:03:09;18.80;99.90
59007;DHT22;44792;52.760;6.726;2023-07-29T00:05:35;18.80;99.90
59007;DHT22;44792;52.760;6.726;2023-07-29T00:08:00;18.80;99.90
59007;DHT22;44792;52.760;6.726;2023-07-29T00:10:27;18.80;99.90
59007;DHT22;44792;52.760;6.726;2023-07-29T00:12:52;18.80;99.90
59007;DHT22;44792;52.760;6.726;2023-07-29T00:15:18;18.70;99.90
59007;DHT22;44792;52.760;6.726;2023-07-29T00:17:44;18.70;99.90
59007;DHT22;44792;52.760;6.726;2023-07-29T00:20:10;18.70;99.90
59007;DHT22;44792;52.760;6.726;2023-07-29T00:22:35;18.70;99.90
59007;DHT22;44792;52.760;6.726;2023-07-29T00:25:01;18.70;99.90
59007;DHT22;44792;52.760;6.726;2023-07-29T00:27:27;18.60;99.90
59007;DHT22;44792;52.760;6.726;2023-07-29T00:29:53;18.60;99.90
59007;DHT22;44792;52.760;6.726;2023-07-29T00:32:19;18.60;99.90
59007;DHT22;44792;52.760;6.726;2023-07-29T00:34:45;18.60;99.90
59007;DHT22;44792;52.760;6.726;2023-07-29T00:37:10;18.60;99.90
59007;DHT22;44792;52.760;6.726;2023-07-29T00:39:37;18.60;99.90
59007;DHT22;44792;52.760;6.726;2023-07-29T00:42:03;18.60;99.90
59007;DHT22;44792;52.760;6.726;2023-07-29T00:44:29;18.60;99.90
59007;DHT22;44792;52.760;6.726;2023-07-29T00:46:57;18.60;99.90
59007;DHT22;44792;52.760;6.726;2023-07-29T00:49:24;18.70;99.90
59007;DHT22;44792;52.760;6.726;2023-07-29T00:51:50;18.60;99.90
59007;DHT22;44792;52.760;6.726;2023-07-29T00:54:16;18.50;99.90
59007;DHT22;44792;52.760;6.726;2023-07-29T00:56:41;18.60;99.90
59007;DHT22;44792;52.760;6.726;2023-07-29T00:59:08;18.50;99.90
59007;DHT22;44792;52.760;6.726;2023-07-29T01:01:33;18.50;99.90
59007;DHT22;44792;52.760;6.726;2023-07-29T01:03:59;18.60;99.90
59007;DHT22;44792;52.760;6.726;2023-07-29T01:06:57;18.50;99.90
59007;DHT22;44792;52.760;6.726;2023-07-29T01:12:08;18.50;99.90
59007;DHT22;44792;52.760;6.726;2023-07-29T01:17:23;18.40;99.90
59007;DHT22;44792;52.760;6.726;2023-07-29T01:20:08;18.40;99.90
59007;DHT22;44792;52.760;6.726;2023-07-29T01:22:36;18.40;99.90
59007;DHT22;44792;52.760;6.726;2023-07-29T01:25:02;18.40;99.90
59007;DHT22;44792;52.760;6.726;2023-07-29T01:27:29;18.40;99.90
59007;DHT22;44792;52.760;6.726;2023-07-29T01:29:56;18.40;99.90
59007;DHT22;44792;52.760;6.726;2023-07-29T01:35:03;18.40;99.90
59007;DHT22;44792;52.760;6.726;2023-07-29T01:37:33;18.40;99.90
59007;DHT22;44792;52.760;6.726;2023-07-29T01:40:00;18.40;99.90
59007;DHT22;44792;52.760;6.726;2023-07-29T01:42:27;18.40;99.90
59007;DHT22;44792;52.760;6.726;2023-07-29T01:44:53;18.40;99.90
59007;DHT22;44792;52.760;6.726;2023-07-29T01:47:18;18.40;99.90
59007;DHT22;44792;52.760;6.726;2023-07-29T01:49:44;18.40;99.90
59007;DHT22;44792;52.760;6.726;2023-07-29T01:52:10;18.40;99.90
59007;DHT22;44792;52.760;6.726;2023-07-29T01:54:36;18.40;99.90
59007;DHT22;44792;52.760;6.726;2023-07-29T01:57:01;18.40;99.90
59007;DHT22;44792;52.760;6.726;2023-07-29T01:59:27;18.40;99.90
59007;DHT22;44792;52.760;6.726;2023-07-29T02:01:53;18.30;99.90
59007;DHT22;44792;52.760;6.726;2023-07-29T02:04:18;18.40;99.90
59007;DHT22;44792;52.760;6.726;2023-07-29T02:06:44;18.40;99.90
59007;DHT22;44792;52.760;6.726;2023-07-29T02:09:10;18.40;99.90
59007;DHT22;44792;52.760;6.726;2023-07-29T02:11:36;18.30;99.90
59007;DHT22;44792;52.760;6.726;2023-07-29T02:14:01;18.40;99.90
59007;DHT22;44792;52.760;6.726;2023-07-29T02:16:27;18.40;99.90
59007;DHT22;44792;52.760;6.726;2023-07-29T02:18:53;18.30;99.90
59007;DHT22;44792;52.760;6.726;2023-07-29T02:21:19;18.40;99.90
59007;DHT22;44792;52.760;6.726;2023-07-29T02:23:44;18.30;99.90
59007;DHT22;44792;52.760;6.726;2023-07-29T02:26:11;18.30;99.90
59007;DHT22;44792;52.760;6.726;2023-07-29T02:28:36;18.30;99.90
59007;DHT22;44792;52.760;6.726;2023-07-29T02:31:14;18.30;99.90
59007;DHT22;44792;52.760;6.726;2023-07-29T02:33:40;18.30;99.90
59007;DHT22;44792;52.760;6.726;2023-07-29T02:36:05;18.30;99.90
59007;DHT22;44792;52.760;6.726;2023-07-29T02:38:31;18.30;99.90
59007;DHT22;44792;52.760;6.726;2023-07-29T02:40:57;18.30;99.90
59007;DHT22;44792;52.760;6.726;2023-07-29T02:43:22;18.20;99.90
59007;DHT22;44792;52.760;6.726;2023-07-29T02:45:48;18.20;99.90
59007;DHT22;44792;52.760;6.726;2023-07-29T02:48:14;18.20;99.90
59007;DHT22;44792;52.760;6.726;2023-07-29T02:50:39;18.20;99.90
59007;DHT22;44792;52.760;6.726;2023-07-29T02:53:05;18.20;99.90
59007;DHT22;44792;52.760;6.726;2023-07-29T02:55:31;18.20;99.90
59007;DHT22;44792;52.760;6.726;2023-07-29T02:57:56;18.20;99.90
59007;DHT22;44792;52.760;6.726;2023-07-29T03:00:22;18.10;99.90
59007;DHT22;44792;52.760;6.726;2023-07-29T03:02:48;18.10;99.90
59007;DHT22;44792;52.760;6.726;2023-07-29T03:05:15;18.20;99.90
59007;DHT22;44792;52.760;6.726;2023-07-29T03:07:40;18.10;99.90
59007;DHT22;44792;52.760;6.726;2023-07-29T03:10:06;18.10;99.90
59007;DHT22;44792;52.760;6.726;2023-07-29T03:12:32;18.10;99.90
59007;DHT22;44792;52.760;6.726;2023-07-29T03:14:57;18.10;99.90
59007;DHT22;44792;52.760;6.726;2023-07-29T03:17:25;18.10;99.90
59007;DHT22;44792;52.760;6.726;2023-07-29T03:19:51;18.10;99.90
59007;DHT22;44792;52.760;6.726;2023-07-29T03:22:17;18.00;99.90
59007;DHT22;44792;52.760;6.726;2023-07-29T03:24:42;18.00;99.90
59007;DHT22;44792;52.760;6.726;2023-07-29T03:27:08;18.00;99.90
59007;DHT22;44792;52.760;6.726;2023-07-29T03:29:35;18.00;99.90
59007;DHT22;44792;52.760;6.726;2023-07-29T03:32:01;17.90;99.90
59007;DHT22;44792;52.760;6.726;2023-07-29T03:34:27;17.90;99.90
59007;DHT22;44792;52.760;6.726;2023-07-29T03:36:53;17.90;99.90
59007;DHT22;44792;52.760;6.726;2023-07-29T03:39:18;17.90;99.90
59007;DHT22;44792;52.760;6.726;2023-07-29T03:41:44;17.90;99.90
59007;DHT22;44792;52.760;6.726;2023-07-29T03:44:10;17.90;99.90
59007;DHT22;44792;52.760;6.726;2023-07-29T03:46:35;17.80;99.90
59007;DHT22;44792;52.760;6.726;2023-07-29T03:49:01;17.80;99.90
59007;DHT22;44792;52.760;6.726;2023-07-29T03:51:28;17.90;99.90
59007;DHT22;44792;52.760;6.726;2023-07-29T03:53:54;17.80;99.90
59007;DHT22;44792;52.760;6.726;2023-07-29T03:56:20;17.70;99.90
59007;DHT22;44792;52.760;6.726;2023-07-29T03:58:45;17.70;99.90
59007;DHT22;44792;52.760;6.726;2023-07-29T04:01:12;17.70;99.90
59007;DHT22;44792;52.760;6.726;2023-07-29T04:03:37;17.70;99.90
59007;DHT22;44792;52.760;6.726;2023-07-29T04:06:03;17.70;99.90
59007;DHT22;44792;52.760;6.726;2023-07-29T04:08:29;17.70;99.90
59007;DHT22;44792;52.760;6.726;2023-07-29T04:10:55;17.60;99.90
59007;DHT22;44792;52.760;6.726;2023-07-29T04:13:21;17.60;99.90
59007;DHT22;44792;52.760;6.726;2023-07-29T04:15:47;17.60;99.90
59007;DHT22;44792;52.760;6.726;2023-07-29T04:18:12;17.60;99.90
59007;DHT22;44792;52.760;6.726;2023-07-29T04:20:38;17.60;99.90
59007;DHT22;44792;52.760;6.726;2023-07-29T04:23:04;17.60;99.90
59007;DHT22;44792;52.760;6.726;2023-07-29T04:25:29;17.60;99.90
59007;DHT22;44792;52.760;6.726;2023-07-29T04:27:55;17.50;99.90
59007;DHT22;44792;52.760;6.726;2023-07-29T04:30:23;17.60;99.90
59007;DHT22;44792;52.760;6.726;2023-07-29T04:32:48;17.60;99.90
59007;DHT22;44792;52.760;6.726;2023-07-29T04:35:15;17.60;99.90
59007;DHT22;44792;52.760;6.726;2023-07-29T04:37:41;17.60;99.90
59007;DHT22;44792;52.760;6.726;2023-07-29T04:40:07;17.60;99.90
59007;DHT22;44792;52.760;6.726;2023-07-29T04:42:33;17.70;99.90
59007;DHT22;44792;52.760;6.726;2023-07-29T04:44:58;17.70;99.90
59007;DHT22;44792;52.760;6.726;2023-07-29T04:47:24;17.70;99.90
59007;DHT22;44792;52.760;6.726;2023-07-29T04:49:50;17.70;99.90
59007;DHT22;44792;52.760;6.726;2023-07-29T04:52:15;17.70;99.90
59007;DHT22;44792;52.760;6.726;2023-07-29T04:54:41;17.70;99.90
59007;DHT22;44792;52.760;6.726;2023-07-29T04:57:07;17.70;99.90
59007;DHT22;44792;52.760;6.726;2023-07-29T04:59:33;17.70;99.90
59007;DHT22;44792;52.760;6.726;2023-07-29T05:01:58;17.70;99.90
59007;DHT22;44792;52.760;6.726;2023-07-29T05:04:24;17.70;99.90
59007;DHT22;44792;52.760;6.726;2023-07-29T05:06:50;17.70;99.90
59007;DHT22;44792;52.760;6.726;2023-07-29T05:09:17;17.80;99.90
59007;DHT22;44792;52.760;6.726;2023-07-29T05:11:44;17.80;99.90
59007;DHT22;44792;52.760;6.726;2023-07-29T05:14:14;17.80;99.90
59007;DHT22;44792;52.760;6.726;2023-07-29T05:16:40;17.80;99.90
59007;DHT22;44792;52.760;6.726;2023-07-29T05:19:06;17.80;99.90
59007;DHT22;44792;52.760;6.726;2023-07-29T05:21:31;17.80;99.90
59007;DHT22;44792;52.760;6.726;2023-07-29T05:23:57;17.80;99.90
59007;DHT22;44792;52.760;6.726;2023-07-29T05:26:24;17.80;99.90
59007;DHT22;44792;52.760;6.726;2023-07-29T05:28:50;17.90;99.90
59007;DHT22;44792;52.760;6.726;2023-07-29T05:31:16;17.90;99.90
59007;DHT22;44792;52.760;6.726;2023-07-29T05:33:42;17.90;99.90
59007;DHT22;44792;52.760;6.726;2023-07-29T05:36:07;17.90;99.90
59007;DHT22;44792;52.760;6.726;2023-07-29T05:38:33;17.90;99.90
59007;DHT22;44792;52.760;6.726;2023-07-29T05:40:59;17.90;99.90
59007;DHT22;44792;52.760;6.726;2023-07-29T05:43:24;18.00;99.90
59007;DHT22;44792;52.760;6.726;2023-07-29T05:45:50;18.00;99.90
59007;DHT22;44792;52.760;6.726;2023-07-29T05:48:16;17.90;99.90
59007;DHT22;44792;52.760;6.726;2023-07-29T05:50:42;17.90;99.90
59007;DHT22;44792;52.760;6.726;2023-07-29T05:53:08;18.00;99.90
59007;DHT22;44792;52.760;6.726;2023-07-29T05:55:33;18.00;99.90
59007;DHT22;44792;52.760;6.726;2023-07-29T05:57:59;18.00;99.90
59007;DHT22;44792;52.760;6.726;2023-07-29T06:00:25;18.00;99.90
59007;DHT22;44792;52.760;6.726;2023-07-29T06:02:51;18.00;99.90
59007;DHT22;44792;52.760;6.726;2023-07-29T06:05:16;18.00;99.90
59007;DHT22;44792;52.760;6.726;2023-07-29T06:07:42;18.10;99.90
59007;DHT22;44792;52.760;6.726;2023-07-29T06:10:14;18.10;99.90
59007;DHT22;44792;52.760;6.726;2023-07-29T06:12:43;18.10;99.90
59007;DHT22;44792;52.760;6.726;2023-07-29T06:15:09;18.20;99.90
59007;DHT22;44792;52.760;6.726;2023-07-29T06:17:35;18.20;99.90
59007;DHT22;44792;52.760;6.726;2023-07-29T06:20:00;18.20;99.90
59007;DHT22;44792;52.760;6.726;2023-07-29T06:22:26;18.30;99.90
59007;DHT22;44792;52.760;6.726;2023-07-29T06:24:52;18.30;99.90
59007;DHT22;44792;52.760;6.726;2023-07-29T06:27:17;18.40;99.90
59007;DHT22;44792;52.760;6.726;2023-07-29T06:29:43;18.40;99.90
59007;DHT22;44792;52.760;6.726;2023-07-29T06:32:09;18.40;99.90
59007;DHT22;44792;52.760;6.726;2023-07-29T06:34:34;18.40;99.90
59007;DHT22;44792;52.760;6.726;2023-07-29T06:37:00;18.40;99.90
59007;DHT22;44792;52.760;6.726;2023-07-29T06:39:26;18.50;99.90
59007;DHT22;44792;52.760;6.726;2023-07-29T06:41:51;18.50;99.90
59007;DHT22;44792;52.760;6.726;2023-07-29T06:44:17;18.50;99.90
59007;DHT22;44792;52.760;6.726;2023-07-29T06:46:43;18.50;99.90
59007;DHT22;44792;52.760;6.726;2023-07-29T06:49:09;18.60;99.90
59007;DHT22;44792;52.760;6.726;2023-07-29T06:51:34;18.70;99.90
59007;DHT22;44792;52.760;6.726;2023-07-29T06:54:04;18.70;99.90
59007;DHT22;44792;52.760;6.726;2023-07-29T06:56:29;18.60;99.90
59007;DHT22;44792;52.760;6.726;2023-07-29T06:58:55;18.70;99.90
59007;DHT22;44792;52.760;6.726;2023-07-29T07:01:21;18.70;99.90
59007;DHT22;44792;52.760;6.726;2023-07-29T07:03:46;18.70;99.90
59007;DHT22;44792;52.760;6.726;2023-07-29T07:06:12;18.80;99.90
59007;DHT22;44792;52.760;6.726;2023-07-29T07:08:38;18.80;99.90
59007;DHT22;44792;52.760;6.726;2023-07-29T07:11:03;18.80;99.90
59007;DHT22;44792;52.760;6.726;2023-07-29T07:13:29;18.90;99.90
59007;DHT22;44792;52.760;6.726;2023-07-29T07:15:55;18.90;99.90
59007;DHT22;44792;52.760;6.726;2023-07-29T07:18:21;18.80;99.90
59007;DHT22;44792;52.760;6.726;2023-07-29T07:20:50;18.90;99.90
59007;DHT22;44792;52.760;6.726;2023-07-29T07:23:16;18.90;99.90
59007;DHT22;44792;52.760;6.726;2023-07-29T07:25:42;19.00;99.90
59007;DHT22;44792;52.760;6.726;2023-07-29T07:28:08;19.10;99.90
59007;DHT22;44792;52.760;6.726;2023-07-29T07:30:34;19.10;99.90
59007;DHT22;44792;52.760;6.726;2023-07-29T07:33:00;19.30;99.90
59007;DHT22;44792;52.760;6.726;2023-07-29T07:35:26;19.40;99.90
59007;DHT22;44792;52.760;6.726;2023-07-29T07:37:52;19.50;99.90
59007;DHT22;44792;52.760;6.726;2023-07-29T07:40:18;19.60;99.90
59007;DHT22;44792;52.760;6.726;2023-07-29T07:42:43;19.80;99.90
59007;DHT22;44792;52.760;6.726;2023-07-29T07:45:09;19.80;99.90
59007;DHT22;44792;52.760;6.726;2023-07-29T07:47:35;19.90;99.90
59007;DHT22;44792;52.760;6.726;2023-07-29T07:50:00;19.90;99.90
59007;DHT22;44792;52.760;6.726;2023-07-29T07:52:27;20.00;99.90
59007;DHT22;44792;52.760;6.726;2023-07-29T07:54:54;20.10;99.90
59007;DHT22;44792;52.760;6.726;2023-07-29T07:57:21;20.30;99.90
59007;DHT22;44792;52.760;6.726;2023-07-29T07:59:50;20.20;99.90
59007;DHT22;44792;52.760;6.726;2023-07-29T08:02:18;20.30;99.90
59007;DHT22;44792;52.760;6.726;2023-07-29T08:04:44;20.30;99.90
59007;DHT22;44792;52.760;6.726;2023-07-29T08:07:09;20.30;99.90
59007;DHT22;44792;52.760;6.726;2023-07-29T08:09:35;20.30;99.90
59007;DHT22;44792;52.760;6.726;2023-07-29T08:12:01;20.30;99.90
59007;DHT22;44792;52.760;6.726;2023-07-29T08:14:26;20.30;99.90
59007;DHT22;44792;52.760;6.726;2023-07-29T08:16:52;20.20;99.90
59007;DHT22;44792;52.760;6.726;2023-07-29T08:19:18;20.30;99.90
59007;DHT22;44792;52.760;6.726;2023-07-29T08:21:44;20.50;99.90
59007;DHT22;44792;52.760;6.726;2023-07-29T08:24:09;20.60;99.90
59007;DHT22;44792;52.760;6.726;2023-07-29T08:26:35;20.60;99.90
59007;DHT22;44792;52.760;6.726;2023-07-29T08:29:01;20.60;99.90
59007;DHT22;44792;52.760;6.726;2023-07-29T08:31:26;20.70;99.90
59007;DHT22;44792;52.760;6.726;2023-07-29T08:33:52;20.60;99.90
59007;DHT22;44792;52.760;6.726;2023-07-29T08:36:18;20.70;99.90
59007;DHT22;44792;52.760;6.726;2023-07-29T08:38:43;20.70;99.90
59007;DHT22;44792;52.760;6.726;2023-07-29T08:41:26;20.80;99.90
59007;DHT22;44792;52.760;6.726;2023-07-29T08:44:09;20.90;99.90
59007;DHT22;44792;52.760;6.726;2023-07-29T08:46:39;20.90;99.90
59007;DHT22;44792;52.760;6.726;2023-07-29T08:49:05;20.90;99.90
59007;DHT22;44792;52.760;6.726;2023-07-29T08:51:32;20.90;99.90
59007;DHT22;44792;52.760;6.726;2023-07-29T08:53:59;21.00;99.90
59007;DHT22;44792;52.760;6.726;2023-07-29T08:56:25;21.20;99.90
59007;DHT22;44792;52.760;6.726;2023-07-29T08:58:52;21.30;99.90
59007;DHT22;44792;52.760;6.726;2023-07-29T09:01:18;21.50;99.90
59007;DHT22;44792;52.760;6.726;2023-07-29T09:03:43;21.60;99.90
59007;DHT22;44792;52.760;6.726;2023-07-29T09:06:09;21.70;99.90
59007;DHT22;44792;52.760;6.726;2023-07-29T09:08:35;21.60;99.90
59007;DHT22;44792;52.760;6.726;2023-07-29T09:11:01;21.60;99.90
59007;DHT22;44792;52.760;6.726;2023-07-29T09:13:27;21.60;99.90
59007;DHT22;44792;52.760;6.726;2023-07-29T09:15:57;21.70;99.90
59007;DHT22;44792;52.760;6.726;2023-07-29T09:18:23;21.80;99.90
59007;DHT22;44792;52.760;6.726;2023-07-29T09:20:52;21.90;99.90
59007;DHT22;44792;52.760;6.726;2023-07-29T09:23:18;21.90;99.90
59007;DHT22;44792;52.760;6.726;2023-07-29T09:25:46;22.00;99.90
59007;DHT22;44792;52.760;6.726;2023-07-29T09:28:14;22.00;99.90
59007;DHT22;44792;52.760;6.726;2023-07-29T09:30:42;22.00;99.90
59007;DHT22;44792;52.760;6.726;2023-07-29T09:33:09;22.10;99.90
59007;DHT22;44792;52.760;6.726;2023-07-29T09:35:36;22.20;99.90
59007;DHT22;44792;52.760;6.726;2023-07-29T09:38:06;22.30;99.90
59007;DHT22;44792;52.760;6.726;2023-07-29T09:40:36;22.20;99.90
59007;DHT22;44792;52.760;6.726;2023-07-29T09:43:03;22.10;99.90
59007;DHT22;44792;52.760;6.726;2023-07-29T09:45:30;22.10;99.90
59007;DHT22;44792;52.760;6.726;2023-07-29T09:47:57;22.10;99.90
59007;DHT22;44792;52.760;6.726;2023-07-29T09:50:24;22.20;99.90
59007;DHT22;44792;52.760;6.726;2023-07-29T09:52:51;22.20;99.90
59007;DHT22;44792;52.760;6.726;2023-07-29T09:55:19;22.30;99.90
59007;DHT22;44792;52.760;6.726;2023-07-29T09:57:45;22.20;99.90
59007;DHT22;44792;52.760;6.726;2023-07-29T10:00:11;22.30;99.90
59007;DHT22;44792;52.760;6.726;2023-07-29T10:02:42;22.30;99.90
59007;DHT22;44792;52.760;6.726;2023-07-29T10:05:10;22.20;99.90
59007;DHT22;44792;52.760;6.726;2023-07-29T10:07:39;22.20;99.90
59007;DHT22;44792;52.760;6.726;2023-07-29T10:10:06;22.20;99.90
59007;DHT22;44792;52.760;6.726;2023-07-29T10:12:33;22.30;99.90
59007;DHT22;44792;52.760;6.726;2023-07-29T10:15:03;22.40;99.90
59007;DHT22;44792;52.760;6.726;2023-07-29T10:17:30;22.50;99.90
59007;DHT22;44792;52.760;6.726;2023-07-29T10:19:59;22.60;99.90
59007;DHT22;44792;52.760;6.726;2023-07-29T10:22:28;22.60;99.90
59007;DHT22;44792;52.760;6.726;2023-07-29T10:24:59;22.50;99.90
59007;DHT22;44792;52.760;6.726;2023-07-29T10:27:28;22.50;99.90
59007;DHT22;44792;52.760;6.726;2023-07-29T10:29:55;22.50;99.90
59007;DHT22;44792;52.760;6.726;2023-07-29T10:32:25;22.50;99.90
59007;DHT22;44792;52.760;6.726;2023-07-29T10:34:52;22.50;99.90
59007;DHT22;44792;52.760;6.726;2023-07-29T10:37:18;22.50;99.90
59007;DHT22;44792;52.760;6.726;2023-07-29T10:39:54;22.50;99.90
59007;DHT22;44792;52.760;6.726;2023-07-29T10:42:21;22.60;99.90
59007;DHT22;44792;52.760;6.726;2023-07-29T10:44:51;22.60;99.90
59007;DHT22;44792;52.760;6.726;2023-07-29T10:47:27;22.60;99.90
59007;DHT22;44792;52.760;6.726;2023-07-29T10:49:59;22.60;99.90
59007;DHT22;44792;52.760;6.726;2023-07-29T10:55:00;22.50;99.90
59007;DHT22;44792;52.760;6.726;2023-07-29T10:57:34;22.40;99.90
59007;DHT22;44792;52.760;6.726;2023-07-29T11:00:01;22.40;99.90
59007;DHT22;44792;52.760;6.726;2023-07-29T11:02:32;22.40;99.90
59007;DHT22;44792;52.760;6.726;2023-07-29T11:04:59;22.30;99.90
59007;DHT22;44792;52.760;6.726;2023-07-29T11:07:26;22.20;99.90
59007;DHT22;44792;52.760;6.726;2023-07-29T11:09:55;22.00;99.90
59007;DHT22;44792;52.760;6.726;2023-07-29T11:12:45;22.00;99.90
59007;DHT22;44792;52.760;6.726;2023-07-29T11:17:41;22.20;99.90
59007;DHT22;44792;52.760;6.726;2023-07-29T11:20:08;22.30;99.90
59007;DHT22;44792;52.760;6.726;2023-07-29T11:22:34;22.30;99.90
59007;DHT22;44792;52.760;6.726;2023-07-29T11:24:59;22.40;99.90
59007;DHT22;44792;52.760;6.726;2023-07-29T11:27:25;22.40;99.90
59007;DHT22;44792;52.760;6.726;2023-07-29T11:30:06;22.40;99.90
59007;DHT22;44792;52.760;6.726;2023-07-29T11:32:32;22.40;99.90
59007;DHT22;44792;52.760;6.726;2023-07-29T11:35:18;22.50;99.90
59007;DHT22;44792;52.760;6.726;2023-07-29T11:37:48;22.60;99.90
59007;DHT22;44792;52.760;6.726;2023-07-29T11:40:19;22.60;99.90
59007;DHT22;44792;52.760;6.726;2023-07-29T11:42:46;22.80;99.90
59007;DHT22;44792;52.760;6.726;2023-07-29T11:45:13;22.90;99.90
59007;DHT22;44792;52.760;6.726;2023-07-29T11:47:39;22.90;99.90
59007;DHT22;44792;52.760;6.726;2023-07-29T11:50:07;23.00;99.90
59007;DHT22;44792;52.760;6.726;2023-07-29T11:52:38;23.10;99.90
59007;DHT22;44792;52.760;6.726;2023-07-29T11:55:05;23.10;99.90
59007;DHT22;44792;52.760;6.726;2023-07-29T11:57:35;23.10;99.90
59007;DHT22;44792;52.760;6.726;2023-07-29T12:00:03;23.10;99.90
59007;DHT22;44792;52.760;6.726;2023-07-29T12:02:30;23.10;99.90
59007;DHT22;44792;52.760;6.726;2023-07-29T12:04:57;23.20;99.90
59007;DHT22;44792;52.760;6.726;2023-07-29T12:07:23;23.20;99.90
59007;DHT22;44792;52.760;6.726;2023-07-29T12:09:49;23.30;99.90
59007;DHT22;44792;52.760;6.726;2023-07-29T12:12:16;23.30;99.90
59007;DHT22;44792;52.760;6.726;2023-07-29T12:14:45;23.40;99.90
59007;DHT22;44792;52.760;6.726;2023-07-29T12:17:15;23.30;99.90
59007;DHT22;44792;52.760;6.726;2023-07-29T12:19:41;23.30;99.90
59007;DHT22;44792;52.760;6.726;2023-07-29T12:22:09;23.30;99.90
59007;DHT22;44792;52.760;6.726;2023-07-29T12:24:39;23.20;99.90
59007;DHT22;44792;52.760;6.726;2023-07-29T12:27:05;23.30;99.90
59007;DHT22;44792;52.760;6.726;2023-07-29T12:29:32;23.30;99.90
59007;DHT22;44792;52.760;6.726;2023-07-29T12:32:02;23.30;99.90
59007;DHT22;44792;52.760;6.726;2023-07-29T12:34:29;23.40;99.90
59007;DHT22;44792;52.760;6.726;2023-07-29T12:36:57;23.40;99.90
59007;DHT22;44792;52.760;6.726;2023-07-29T12:39:28;23.40;99.90
59007;DHT22;44792;52.760;6.726;2023-07-29T12:41:56;23.50;99.90
59007;DHT22;44792;52.760;6.726;2023-07-29T12:44:29;23.50;99.90
59007;DHT22;44792;52.760;6.726;2023-07-29T12:46:55;23.40;99.90
59007;DHT22;44792;52.760;6.726;2023-07-29T12:49:21;23.40;99.90
59007;DHT22;44792;52.760;6.726;2023-07-29T12:51:48;23.40;99.90
59007;DHT22;44792;52.760;6.726;2023-07-29T12:54:13;23.40;99.90
59007;DHT22;44792;52.760;6.726;2023-07-29T12:56:39;23.30;99.90
59007;DHT22;44792;52.760;6.726;2023-07-29T12:59:05;23.20;99.90
59007;DHT22;44792;52.760;6.726;2023-07-29T13:01:31;23.10;99.90
59007;DHT22;44792;52.760;6.726;2023-07-29T13:03:57;23.10;99.90
59007;DHT22;44792;52.760;6.726;2023-07-29T13:06:23;23.00;99.90
59007;DHT22;44792;52.760;6.726;2023-07-29T13:08:49;23.10;99.90
59007;DHT22;44792;52.760;6.726;2023-07-29T13:11:15;23.10;99.90
59007;DHT22;44792;52.760;6.726;2023-07-29T13:13:41;23.10;99.90
59007;DHT22;44792;52.760;6.726;2023-07-29T13:16:07;23.10;99.90
59007;DHT22;44792;52.760;6.726;2023-07-29T13:18:33;23.10;99.90
59007;DHT22;44792;52.760;6.726;2023-07-29T13:20:59;23.10;99.90
59007;DHT22;44792;52.760;6.726;2023-07-29T13:23:26;23.20;99.90
59007;DHT22;44792;52.760;6.726;2023-07-29T13:25:52;23.20;99.90
59007;DHT22;44792;52.760;6.726;2023-07-29T13:28:18;23.50;99.90
59007;DHT22;44792;52.760;6.726;2023-07-29T13:30:44;23.50;99.90
59007;DHT22;44792;52.760;6.726;2023-07-29T13:33:10;23.50;99.90
59007;DHT22;44792;52.760;6.726;2023-07-29T13:35:36;23.50;99.90
59007;DHT22;44792;52.760;6.726;2023-07-29T13:38:02;23.40;99.90
59007;DHT22;44792;52.760;6.726;2023-07-29T13:40:28;23.30;99.90
59007;DHT22;44792;52.760;6.726;2023-07-29T13:42:54;23.20;99.90
59007;DHT22;44792;52.760;6.726;2023-07-29T13:45:20;23.20;99.90
59007;DHT22;44792;52.760;6.726;2023-07-29T13:47:46;23.30;99.90
59007;DHT22;44792;52.760;6.726;2023-07-29T13:50:12;23.40;99.90
59007;DHT22;44792;52.760;6.726;2023-07-29T13:52:38;23.50;99.90
59007;DHT22;44792;52.760;6.726;2023-07-29T13:55:05;23.40;99.90
59007;DHT22;44792;52.760;6.726;2023-07-29T13:57:31;23.40;99.90
59007;DHT22;44792;52.760;6.726;2023-07-29T13:59:57;23.20;99.90
59007;DHT22;44792;52.760;6.726;2023-07-29T14:02:23;23.20;99.90
59007;DHT22;44792;52.760;6.726;2023-07-29T14:04:49;22.70;99.90
59007;DHT22;44792;52.760;6.726;2023-07-29T14:07:15;22.80;99.90
59007;DHT22;44792;52.760;6.726;2023-07-29T14:09:40;22.60;99.90
59007;DHT22;44792;52.760;6.726;2023-07-29T14:12:08;22.60;99.90
59007;DHT22;44792;52.760;6.726;2023-07-29T14:14:38;22.30;99.90
59007;DHT22;44792;52.760;6.726;2023-07-29T14:17:04;22.20;99.90
59007;DHT22;44792;52.760;6.726;2023-07-29T14:19:31;22.20;99.90
59007;DHT22;44792;52.760;6.726;2023-07-29T14:21:56;22.00;99.90
59007;DHT22;44792;52.760;6.726;2023-07-29T14:24:22;21.90;99.90
59007;DHT22;44792;52.760;6.726;2023-07-29T14:26:48;21.90;99.90
59007;DHT22;44792;52.760;6.726;2023-07-29T14:29:14;21.80;99.90
59007;DHT22;44792;52.760;6.726;2023-07-29T14:31:39;21.80;99.90
59007;DHT22;44792;52.760;6.726;2023-07-29T14:34:05;21.80;99.90
59007;DHT22;44792;52.760;6.726;2023-07-29T14:36:31;21.70;99.90
59007;DHT22;44792;52.760;6.726;2023-07-29T14:38:57;21.70;99.90
59007;DHT22;44792;52.760;6.726;2023-07-29T14:41:22;21.70;99.90
59007;DHT22;44792;52.760;6.726;2023-07-29T14:43:48;21.60;99.90
59007;DHT22;44792;52.760;6.726;2023-07-29T14:46:14;21.60;99.90
59007;DHT22;44792;52.760;6.726;2023-07-29T14:48:40;21.50;99.90
59007;DHT22;44792;52.760;6.726;2023-07-29T14:51:05;21.40;99.90
59007;DHT22;44792;52.760;6.726;2023-07-29T14:53:31;21.40;99.90
59007;DHT22;44792;52.760;6.726;2023-07-29T14:55:57;21.40;99.90
59007;DHT22;44792;52.760;6.726;2023-07-29T14:58:22;21.30;99.90
59007;DHT22;44792;52.760;6.726;2023-07-29T15:00:51;21.30;99.90
59007;DHT22;44792;52.760;6.726;2023-07-29T15:03:17;21.20;99.90
59007;DHT22;44792;52.760;6.726;2023-07-29T15:05:43;21.20;99.90
59007;DHT22;44792;52.760;6.726;2023-07-29T15:08:09;21.20;99.90
59007;DHT22;44792;52.760;6.726;2023-07-29T15:10:35;21.20;99.90
59007;DHT22;44792;52.760;6.726;2023-07-29T15:13:01;21.20;99.90
59007;DHT22;44792;52.760;6.726;2023-07-29T15:15:27;21.40;99.90
59007;DHT22;44792;52.760;6.726;2023-07-29T15:17:53;21.40;99.90
59007;DHT22;44792;52.760;6.726;2023-07-29T15:20:19;21.50;99.90
59007;DHT22;44792;52.760;6.726;2023-07-29T15:22:44;21.40;99.90
59007;DHT22;44792;52.760;6.726;2023-07-29T15:25:10;21.50;99.90
59007;DHT22;44792;52.760;6.726;2023-07-29T15:27:37;21.60;99.90
59007;DHT22;44792;52.760;6.726;2023-07-29T15:30:07;21.70;99.90
59007;DHT22;44792;52.760;6.726;2023-07-29T15:32:32;21.80;99.90
59007;DHT22;44792;52.760;6.726;2023-07-29T15:34:58;21.80;99.90
59007;DHT22;44792;52.760;6.726;2023-07-29T15:37:27;21.80;99.90
59007;DHT22;44792;52.760;6.726;2023-07-29T15:39:53;21.90;99.90